createdAt,value
2022-09-27T00:02:31.540Z,1.33
2022-09-27T00:07:33.311Z,1.10
2022-09-27T00:12:35.150Z,0.90
2022-09-27T00:17:37.492Z,0.98
2022-09-27T00:22:38.845Z,0.80
2022-09-27T00:27:40.211Z,0.95
2022-09-27T00:32:42.393Z,0.88
2022-09-27T00:37:43.974Z,0.90
2022-09-27T00:42:45.375Z,0.90
2022-09-27T00:47:49.152Z,1.10
2022-09-27T00:52:52.434Z,0.88
2022-09-27T00:57:54.018Z,1.08
2022-09-27T01:02:55.937Z,0.93
2022-09-27T01:08:00.625Z,1.02
2022-09-27T01:13:20.179Z,1.15
2022-09-27T01:18:31.062Z,1.73
2022-09-27T01:23:53.437Z,1.58
2022-09-27T01:29:15.188Z,1.00
2022-09-27T01:34:26.680Z,1.25
2022-09-27T01:39:34.091Z,0.80
2022-09-27T01:44:38.766Z,0.90
2022-09-27T01:49:47.590Z,0.85
2022-09-27T01:54:52.859Z,1.10
2022-09-27T01:59:58.299Z,1.02
2022-09-27T02:05:01.170Z,0.90
2022-09-27T02:10:06.557Z,1.30
2022-09-27T02:15:10.069Z,1.23
2022-09-27T02:20:14.216Z,0.95
2022-09-27T02:25:18.920Z,1.13
2022-09-27T02:30:20.352Z,1.00
2022-09-27T02:35:29.999Z,1.33
2022-09-27T02:40:33.261Z,1.00
2022-09-27T02:45:41.790Z,1.00
2022-09-27T02:50:57.623Z,1.02
2022-09-27T02:56:14.192Z,1.10
2022-09-27T03:01:33.657Z,1.40
2022-09-27T03:06:36.381Z,1.03
2022-09-27T03:11:37.699Z,1.40
2022-09-27T03:16:39.118Z,1.08
2022-09-27T03:21:40.455Z,1.58
2022-09-27T03:26:41.800Z,1.30
2022-09-27T03:31:43.103Z,1.00
2022-09-27T03:36:45.374Z,1.13
2022-09-27T03:41:47.230Z,1.20
2022-09-27T03:46:48.555Z,1.30
2022-09-27T03:51:49.937Z,1.05
2022-09-27T03:56:51.776Z,0.90
2022-09-27T04:01:53.228Z,0.98
2022-09-27T04:06:54.666Z,0.85
2022-09-27T04:11:56.020Z,0.80
2022-09-27T04:16:57.375Z,1.30
2022-09-27T04:21:58.730Z,0.77
2022-09-27T04:27:00.140Z,1.30
2022-09-27T04:32:01.500Z,1.25
2022-09-27T04:37:02.824Z,0.98
2022-09-27T04:42:04.208Z,1.15
2022-09-27T04:47:05.580Z,0.68
2022-09-27T04:52:07.086Z,0.70
2022-09-27T04:57:08.573Z,0.90
2022-09-27T05:02:10.045Z,0.93
2022-09-27T05:07:11.540Z,0.95
2022-09-27T05:12:13.782Z,1.30
2022-09-27T05:17:15.136Z,0.93
2022-09-27T05:22:17.009Z,1.10
2022-09-27T05:27:20.482Z,1.00
2022-09-27T05:32:22.879Z,0.90
2022-09-27T05:37:24.391Z,1.13
2022-09-27T05:42:25.696Z,0.77
2022-09-27T05:47:27.313Z,0.75
2022-09-27T05:52:29.996Z,1.15
2022-09-27T05:57:32.069Z,0.80
2022-09-27T06:02:34.691Z,0.90
2022-09-27T06:07:36.798Z,0.80
2022-09-27T06:12:38.535Z,1.00
2022-09-27T06:17:40.110Z,1.17
2022-09-27T06:22:41.599Z,0.88
2022-09-27T06:27:43.156Z,0.88
2022-09-27T06:32:44.762Z,1.08
2022-09-27T06:37:46.781Z,0.80
2022-09-27T06:42:48.607Z,0.93
2022-09-27T06:47:49.952Z,0.80
2022-09-27T06:52:51.392Z,0.70
2022-09-27T06:58:15.059Z,0.70
2022-09-27T07:03:16.604Z,1.55
2022-09-27T07:08:18.441Z,1.33
2022-09-27T07:13:19.723Z,1.20
2022-09-27T07:18:21.070Z,1.00
2022-09-27T07:23:23.806Z,1.20
2022-09-27T07:28:25.233Z,1.20
2022-09-27T07:33:26.582Z,1.23
2022-09-27T07:38:27.913Z,0.85
2022-09-27T07:43:31.006Z,1.45
2022-09-27T07:48:32.332Z,1.10
2022-09-27T07:53:33.968Z,1.05
2022-09-27T07:58:35.308Z,1.00
2022-09-27T08:03:36.764Z,0.90
2022-09-27T08:08:38.805Z,1.05
2022-09-27T08:13:40.403Z,0.82
2022-09-27T08:18:41.739Z,1.00
2022-09-27T08:23:43.150Z,1.02
2022-09-27T08:28:44.516Z,1.00
2022-09-27T08:33:49.574Z,0.98
2022-09-27T08:38:51.589Z,1.10
2022-09-27T08:44:03.053Z,1.38
2022-09-27T08:49:13.764Z,1.05
2022-09-27T08:54:20.049Z,1.30
2022-09-27T08:59:23.735Z,1.77
2022-09-27T09:04:29.669Z,1.40
2022-09-27T09:09:37.932Z,1.23
2022-09-27T09:14:48.491Z,1.10
2022-09-27T09:19:58.466Z,0.88
2022-09-27T09:25:06.379Z,0.82
2022-09-27T09:30:18.489Z,1.38
2022-09-27T09:35:25.883Z,1.38
2022-09-27T09:40:30.561Z,1.23
2022-09-27T09:45:35.053Z,1.27
2022-09-27T09:50:40.115Z,1.30
2022-09-27T09:55:43.421Z,0.93
2022-09-27T10:00:45.644Z,1.88
2022-09-27T10:05:47.287Z,1.35
2022-09-27T10:10:48.695Z,1.13
2022-09-27T10:15:56.357Z,0.90
2022-09-27T10:21:00.114Z,1.02
2022-09-27T10:26:03.136Z,1.02
2022-09-27T10:31:08.884Z,1.90
2022-09-27T10:36:22.757Z,1.30
2022-09-27T10:41:28.372Z,1.08
2022-09-27T10:46:33.953Z,0.93
2022-09-27T10:51:37.460Z,1.60
2022-09-27T10:56:39.492Z,1.25
2022-09-27T11:01:42.547Z,0.93
2022-09-27T11:06:43.937Z,1.00
2022-09-27T11:11:45.552Z,1.40
2022-09-27T11:17:25.335Z,1.40
2022-09-27T11:22:38.841Z,1.30
2022-09-27T11:27:42.995Z,1.10
2022-09-27T11:32:59.697Z,1.20
2022-09-27T11:38:24.801Z,1.50
2022-09-27T11:43:35.325Z,1.48
2022-09-27T11:48:49.959Z,1.80
2022-09-27T11:54:05.731Z,1.10
2022-09-27T11:59:24.694Z,1.50
2022-09-27T12:04:38.376Z,1.00
2022-09-27T12:09:41.721Z,1.25
2022-09-27T12:14:45.425Z,1.23
2022-09-27T12:19:51.972Z,1.38
2022-09-27T12:24:53.484Z,1.48
2022-09-27T12:29:56.434Z,1.25
2022-09-27T12:35:07.241Z,1.55
2022-09-27T12:40:20.287Z,1.90
2022-09-27T12:45:28.256Z,1.38
2022-09-27T12:50:37.802Z,1.23
2022-09-27T12:55:55.621Z,1.42
2022-09-27T13:01:15.893Z,1.40
2022-09-27T13:06:36.174Z,1.38
2022-09-27T13:11:47.412Z,1.23
2022-09-27T13:16:49.267Z,2.00
2022-09-27T13:21:55.116Z,1.48
2022-09-27T13:27:01.047Z,1.30
2022-09-27T13:32:13.959Z,1.35
2022-09-27T13:37:36.784Z,1.00
2022-09-27T13:42:40.773Z,1.00
2022-09-27T13:47:46.074Z,0.95
2022-09-27T13:52:59.890Z,0.90
2022-09-27T13:58:03.333Z,1.00
2022-09-27T14:03:04.660Z,1.10
2022-09-27T14:08:07.219Z,1.10
2022-09-27T14:13:08.758Z,1.00
2022-09-27T14:18:12.510Z,1.23
2022-09-27T14:23:16.920Z,1.30
2022-09-27T14:28:28.735Z,1.40
2022-09-27T14:33:31.590Z,1.10
2022-09-27T14:38:38.154Z,1.25
2022-09-27T14:43:43.375Z,1.00
2022-09-27T14:48:44.734Z,1.20
2022-09-27T14:53:46.082Z,1.10
2022-09-27T14:58:48.462Z,1.00
2022-09-27T15:03:50.389Z,0.90
2022-09-27T15:08:52.324Z,1.00
2022-09-27T15:13:55.050Z,1.00
2022-09-27T15:19:03.438Z,1.20
2022-09-27T15:24:05.893Z,1.10
2022-09-27T15:29:17.788Z,1.10
2022-09-27T15:34:20.323Z,1.35
2022-09-27T15:39:27.421Z,1.00
2022-09-27T15:44:47.680Z,1.23
2022-09-27T15:49:49.050Z,1.30
2022-09-27T15:54:52.570Z,1.63
2022-09-27T15:59:56.200Z,1.23
2022-09-27T16:04:57.535Z,1.25
2022-09-27T16:09:58.992Z,1.38
2022-09-27T16:15:00.585Z,1.40
2022-09-27T16:20:01.933Z,1.20
2022-09-27T16:25:03.558Z,1.35
2022-09-27T16:30:05.080Z,1.50
2022-09-27T16:35:06.656Z,1.60
2022-09-27T16:40:08.627Z,1.35
2022-09-27T16:45:12.727Z,1.50
2022-09-27T16:50:35.758Z,1.20
2022-09-27T17:00:41.986Z,1.73
2022-09-27T17:05:43.503Z,1.73
2022-09-27T17:10:45.364Z,2.92
2022-09-27T17:15:46.943Z,3.40
2022-09-27T17:20:49.102Z,2.70
2022-09-27T17:25:51.687Z,2.20
2022-09-27T17:30:56.300Z,5.50
2022-09-27T17:36:00.128Z,7.75
2022-09-27T17:41:02.390Z,5.47
2022-09-27T17:46:04.881Z,4.25
2022-09-27T17:51:06.428Z,3.97
2022-09-27T17:56:08.866Z,11.07
2022-09-27T18:01:10.295Z,9.95
2022-09-27T18:06:12.646Z,6.63
2022-09-27T18:11:15.545Z,5.18
2022-09-27T18:16:17.974Z,3.00
2022-09-27T18:21:23.628Z,2.50
2022-09-27T18:26:26.162Z,3.55
2022-09-27T18:31:27.668Z,4.20
2022-09-27T18:36:29.076Z,4.60
2022-09-27T18:41:31.447Z,3.55
2022-09-27T18:46:36.266Z,3.28
2022-09-27T18:51:43.317Z,3.33
2022-09-27T18:56:44.737Z,3.20
2022-09-27T19:01:46.609Z,3.13
2022-09-27T19:06:48.070Z,2.78
2022-09-27T19:11:49.609Z,2.30
2022-09-27T19:16:51.182Z,3.13
2022-09-27T19:21:52.617Z,3.00
2022-09-27T19:26:55.883Z,3.50
2022-09-27T19:31:57.464Z,3.70
2022-09-27T19:36:58.971Z,4.22
2022-09-27T19:42:00.373Z,4.40
2022-09-27T19:47:01.871Z,3.55
2022-09-27T19:52:04.644Z,2.92
2022-09-27T19:57:06.049Z,3.70
2022-09-27T20:02:07.849Z,3.20
2022-09-27T20:07:09.829Z,3.40
2022-09-27T20:12:11.197Z,3.60
2022-09-27T20:17:13.486Z,3.45
2022-09-27T20:22:14.844Z,3.42
2022-09-27T20:27:16.208Z,3.33
2022-09-27T20:32:33.341Z,3.25
2022-09-27T20:37:34.801Z,4.30
2022-09-27T20:42:36.152Z,5.22
2022-09-27T20:47:39.194Z,5.47
2022-09-27T20:52:40.506Z,5.38
2022-09-27T20:57:56.912Z,8.40
2022-09-27T21:02:59.223Z,8.65
2022-09-27T21:08:00.684Z,6.25
2022-09-27T21:13:02.056Z,5.70
2022-09-27T21:18:03.456Z,4.70
2022-09-27T21:23:04.849Z,4.82
2022-09-27T21:28:06.223Z,4.43
2022-09-27T21:33:07.528Z,4.60
2022-09-27T21:38:08.942Z,4.22
2022-09-27T21:43:11.067Z,4.18
2022-09-27T21:48:12.379Z,4.03
2022-09-27T21:53:13.737Z,3.97
2022-09-27T21:58:15.063Z,3.92
2022-09-27T22:03:16.683Z,3.70
2022-09-27T22:08:18.436Z,3.92
2022-09-27T22:13:19.781Z,3.65
2022-09-27T22:18:21.139Z,4.13
2022-09-27T22:23:22.499Z,3.88
2022-09-27T22:28:24.605Z,3.80
2022-09-27T22:33:26.076Z,3.72
2022-09-27T22:38:27.547Z,3.80
2022-09-27T22:43:32.029Z,3.90
2022-09-27T22:48:33.814Z,4.20
2022-09-27T22:53:35.185Z,3.72
2022-09-27T22:58:37.572Z,4.35
2022-09-27T23:03:39.517Z,4.28
2022-09-27T23:08:42.535Z,4.45
2022-09-27T23:13:44.243Z,4.60
2022-09-27T23:18:47.162Z,4.47
2022-09-27T23:23:49.194Z,3.80
2022-09-27T23:29:00.507Z,4.47
2022-09-27T23:34:02.962Z,4.32
2022-09-27T23:39:04.311Z,3.97
2022-09-27T23:44:05.655Z,4.30
2022-09-27T23:49:07.114Z,4.05
2022-09-27T23:54:08.418Z,3.97
2022-09-27T23:59:09.864Z,4.50
